Time;durP1;ratioP1;P1;durP2;ratioP2;P2;SDS_P1;SDS_P2;PMS_P1;PMS_P2;Temp;Humidity;BMP_temperature;BMP_pressure;BME280_temperature;BME280_humidity;BME280_pressure;Samples;Min_cycle;Max_cycle;Signal;HPM_P1;HPM_P2
2023/10/25 00:06:22;;;;;;;;;;;;;;;;;;;;;
2023/10/25 00:09:02;;;;;;;21.23;15.43;;;12.10;99.90;;;;;;6301946;22;20428;-93
2023/10/25 00:11:31;;;;;;;21.47;14.17;;;;;;;;;;6302720;22;20388;-94
2023/10/25 00:14:11;;;;;;;19.87;13.37;;;;;;;;;;6302814;22;20423;-93
2023/10/25 00:16:43;;;;;;;19.57;14.50;;;;;;;;;;6305643;22;20384;-94
2023/10/25 00:19:15;;;;;;;20.73;14.90;;;;;;;;;;6300030;22;20428;-94
2023/10/25 00:21:45;;;;;;;20.07;14.70;;;;;;;;;;6298160;22;20484;-93
2023/10/25 00:24:13;;;;;;;20.73;14.00;;;;;;;;;;6305971;22;20407;-93
2023/10/25 00:26:41;;;;;;;19.10;13.53;;;;;;;;;;6306476;22;20401;-93
2023/10/25 00:29:13;;;;;;;21.37;14.10;;;;;;;;;;6306438;22;20409;-93
2023/10/25 00:31:40;;;;;;;14.77;12.30;;;;;;;;;;6306271;22;20385;-94
2023/10/25 00:34:12;;;;;;;18.80;13.90;;;;;;;;;;6305151;22;20386;-93
2023/10/25 00:36:43;;;;;;;16.20;13.80;;;;;;;;;;6301625;22;20403;-93
2023/10/25 00:39:14;;;;;;;18.53;14.30;;;;;;;;;;6298510;22;20493;-94
2023/10/25 00:41:51;;;;;;;17.40;14.33;;;;;;;;;;6305066;22;20412;-93
2023/10/25 00:44:23;;;;;;;18.20;12.90;;;;;;;;;;6306205;22;20412;-95
2023/10/25 00:46:55;;;;;;;19.30;14.27;;;;;;;;;;6305926;22;20503;-94
2023/10/25 00:49:23;;;;;;;16.60;13.10;;;;;;;;;;6296319;22;20412;-93
2023/10/25 00:51:50;;;;;;;17.17;12.97;;;;;;;;;;6294348;22;20411;-93
2023/10/25 00:54:18;;;;;;;17.40;13.00;;;;;;;;;;6303223;22;20415;-93
2023/10/25 00:56:48;;;;;;;16.73;12.37;;;12.00;99.90;;;;;;6305894;22;20405;-93
2023/10/25 00:59:16;;;;;;;21.03;13.10;;;;;;;;;;6305258;22;20421;-91
2023/10/25 01:01:48;;;;;;;20.83;13.43;;;11.60;99.90;;;;;;6304915;22;20424;-92
2023/10/25 01:04:15;;;;;;;16.70;11.97;;;;;;;;;;6305741;22;20424;-92
2023/10/25 01:06:43;;;;;;;16.27;12.97;;;;;;;;;;6319231;22;20402;-91
2023/10/25 01:09:22;;;;;;;14.73;12.40;;;;;;;;;;6336892;22;20412;-92
2023/10/25 01:12:05;;;;;;;12.67;11.10;;;;;;;;;;6331627;22;20400;-93
2023/10/25 01:14:33;;;;;;;17.30;12.20;;;;;;;;;;6316707;22;20407;-93
2023/10/25 01:17:19;;;;;;;12.60;9.93;;;12.00;99.90;;;;;;6318819;22;20404;-93
2023/10/25 01:19:47;;;;;;;16.20;12.33;;;;;;;;;;6317585;22;20446;-92
2023/10/25 01:22:14;;;;;;;12.63;10.07;;;;;;;;;;6316173;22;20410;-92
2023/10/25 01:24:51;;;;;;;13.20;10.33;;;;;;;;;;6317349;22;20407;-92
2023/10/25 01:27:31;;;;;;;10.80;9.70;;;11.90;99.90;;;;;;6318033;22;20368;-93
2023/10/25 01:29:58;;;;;;;12.73;10.63;;;;;;;;;;6315878;22;20419;-92
2023/10/25 01:32:33;;;;;;;14.70;9.17;;;;;;;;;;6318012;22;20407;-93
2023/10/25 01:35:01;;;;;;;15.77;11.20;;;;;;;;;;6318725;22;20368;-92
2023/10/25 01:37:28;;;;;;;10.93;9.80;;;;;;;;;;6317778;22;20752;-93
2023/10/25 01:39:57;;;;;;;9.20;8.20;;;12.00;99.90;;;;;;6317670;22;20904;-92
2023/10/25 01:42:24;;;;;;;9.00;8.17;;;;;;;;;;6316881;22;20435;-92
2023/10/25 01:44:51;;;;;;;10.50;8.60;;;11.90;99.90;;;;;;6317300;22;20804;-92
2023/10/25 01:47:18;;;;;;;9.40;8.13;;;;;;;;;;6315891;22;20395;-92
2023/10/25 01:49:46;;;;;;;10.13;7.43;;;;;;;;;;6317290;22;20419;-92
2023/10/25 02:23:21;;;;;;;16.90;14.33;;;;;;;;;;6283844;22;20421;-95
2023/10/25 02:25:49;;;;;;;16.70;13.83;;;;;;;;;;6305660;22;20403;-94
2023/10/25 02:28:20;;;;;;;18.07;13.60;;;11.80;99.90;;;;;;6305147;22;20434;-94
2023/10/25 02:30:48;;;;;;;18.73;14.57;;;;;;;;;;6305362;22;20381;-94
2023/10/25 02:33:17;;;;;;;18.23;14.27;;;;;;;;;;6305078;22;20416;-94
2023/10/25 02:35:45;;;;;;;18.47;15.03;;;;;;;;;;6305357;22;20467;-94
2023/10/25 02:38:17;;;;;;;21.37;15.80;;;11.80;99.90;;;;;;6305094;22;20385;-94
2023/10/25 02:40:46;;;;;;;20.87;16.10;;;;;;;;;;6305103;22;20392;-94
2023/10/25 02:43:14;;;;;;;19.23;14.73;;;;;;;;;;6305377;22;20435;-95
2023/10/25 02:45:41;;;;;;;19.40;15.97;;;;;;;;;;6305341;22;20406;-95
2023/10/25 02:48:13;;;;;;;22.17;16.80;;;;;;;;;;6305266;22;20388;-94
2023/10/25 02:50:45;;;;;;;20.23;17.27;;;;;;;;;;6305512;22;20391;-95
2023/10/25 02:53:15;;;;;;;25.07;18.70;;;;;;;;;;6305246;22;20487;-95
2023/10/25 02:55:44;;;;;;;21.60;16.50;;;;;;;;;;6305507;22;20388;-95
2023/10/25 02:58:16;;;;;;;21.30;17.67;;;;;;;;;;6297127;22;20423;-94
2023/10/25 03:00:46;;;;;;;23.67;15.97;;;;;;;;;;6289422;22;20369;-93
2023/10/25 03:03:14;;;;;;;21.87;17.67;;;;;;;;;;6292800;22;20424;-94
2023/10/25 03:06:09;;;;;;;24.20;18.20;;;11.70;99.90;;;;;;6305160;22;20415;-94
2023/10/25 03:08:40;;;;;;;26.43;19.70;;;;;;;;;;6302772;22;20396;-94
2023/10/25 03:11:07;;;;;;;28.63;19.43;;;;;;;;;;6299921;22;20464;-94
2023/10/25 03:13:38;;;;;;;24.10;18.90;;;;;;;;;;6295207;22;20428;-95
2023/10/25 03:16:14;;;;;;;24.27;18.43;;;;;;;;;;6293585;22;20395;-95
2023/10/25 03:19:00;;;;;;;25.27;18.53;;;11.60;99.90;;;;;;6299679;22;20398;-95
2023/10/25 03:21:29;;;;;;;24.20;18.70;;;;;;;;;;6287505;22;20454;-93
2023/10/25 03:23:59;;;;;;;31.23;19.43;;;;;;;;;;6286388;22;20432;-94
2023/10/25 03:26:26;;;;;;;24.53;17.70;;;;;;;;;;6298007;22;20462;-94
2023/10/25 03:28:57;;;;;;;21.90;17.27;;;;;;;;;;6307042;22;20383;-95
2023/10/25 03:31:44;;;;;;;;;;;;;;;;;;;;;
2023/10/25 03:34:14;;;;;;;21.20;17.20;;;;;;;;;;6297508;22;20915;-94
2023/10/25 03:36:43;;;;;;;22.43;16.47;;;;;;;;;;6286307;22;20404;-94
2023/10/25 03:39:11;;;;;;;22.70;18.00;;;;;;;;;;6294307;22;20400;-94
2023/10/25 03:42:21;;;;;;;;;;;;;;;;;;;;;
2023/10/25 03:50:03;;;;;;;22.43;17.70;;;;;;;;;;6290718;22;20453;-92
2023/10/25 04:00:37;;;;;;;20.00;17.40;;;;;;;;;;6322016;22;20474;-94
2023/10/25 04:03:19;;;;;;;21.57;18.07;;;;;;;;;;6330744;22;20497;-94
2023/10/25 04:05:59;;;;;;;21.97;16.50;;;;;;;;;;6324769;22;20438;-94
2023/10/25 04:11:10;;;;;;;20.40;15.53;;;;;;;;;;6320132;22;20415;-93
2023/10/25 05:10:41;;;;;;;24.13;16.87;;;10.90;99.90;;;;;;6286250;22;20498;-92
2023/10/25 05:13:14;;;;;;;22.00;17.07;;;10.60;99.90;;;;;;6289106;22;20385;-93
2023/10/25 05:15:43;;;;;;;23.47;16.70;;;;;;;;;;6284019;22;20379;-92
2023/10/25 05:18:14;;;;;;;19.90;16.20;;;10.70;99.90;;;;;;6284544;22;20487;-92
2023/10/25 05:20:42;;;;;;;23.67;16.03;;;;;;;;;;6283947;22;20412;-93
2023/10/25 05:23:10;;;;;;;26.23;18.87;;;10.60;99.90;;;;;;6288259;22;20507;-93
2023/10/25 05:25:40;;;;;;;23.97;17.37;;;10.70;99.90;;;;;;6286041;22;20404;-92
2023/10/25 05:28:07;;;;;;;22.30;16.83;;;10.60;99.90;;;;;;6284974;22;20432;-93
2023/10/25 05:30:35;;;;;;;26.10;17.27;;;10.30;99.90;;;;;;6284570;22;20439;-93
2023/10/25 05:33:06;;;;;;;25.30;17.97;;;10.60;99.90;;;;;;6284011;22;20396;-93
2023/10/25 05:35:33;;;;;;;26.03;17.17;;;;;;;;;;6287186;22;20412;-92
2023/10/25 05:38:03;;;;;;;22.43;18.03;;;10.50;99.90;;;;;;6284389;22;20435;-92
2023/10/25 05:40:31;;;;;;;21.93;16.97;;;;;;;;;;6285633;22;20428;-93
2023/10/25 05:43:03;;;;;;;22.17;16.03;;;10.20;99.90;;;;;;6284559;22;20442;-92
2023/10/25 05:45:30;;;;;;;19.90;15.47;;;;;;;;;;6286552;22;20340;-93
2023/10/25 05:47:57;;;;;;;22.60;15.60;;;;;;;;;;6286820;22;20929;-94
2023/10/25 05:50:25;;;;;;;23.50;18.60;;;;;;;;;;6292204;22;20536;-93
2023/10/25 05:52:52;;;;;;;20.70;16.97;;;;;;;;;;6305413;22;20393;-92
2023/10/25 05:55:20;;;;;;;24.10;17.40;;;10.50;99.90;;;;;;6288821;22;20456;-93
2023/10/25 05:57:49;;;;;;;23.70;17.83;;;;;;;;;;6300210;22;20499;-92
2023/10/25 06:00:19;;;;;;;22.57;16.73;;;10.40;99.90;;;;;;6289594;22;20424;-92
2023/10/25 06:02:50;;;;;;;24.53;17.90;;;10.40;99.90;;;;;;6297725;22;20428;-93
2023/10/25 06:05:19;;;;;;;25.43;18.50;;;10.50;99.90;;;;;;6296746;22;20393;-93
2023/10/25 06:07:46;;;;;;;25.37;19.27;;;;;;;;;;6304976;22;20428;-93
2023/10/25 07:09:50;;;;;;;33.67;20.70;;;;;;;;;;6279509;22;20427;-92
2023/10/25 07:12:19;;;;;;;30.00;19.83;;;;;;;;;;6306827;22;20366;-92
2023/10/25 07:14:47;;;;;;;30.57;19.70;;;;;;;;;;6306971;22;20388;-90
2023/10/25 07:17:16;;;;;;;28.57;21.87;;;;;;;;;;6307429;22;20404;-90
2023/10/25 07:19:46;;;;;;;27.27;19.93;;;;;;;;;;6307131;22;20416;-91
2023/10/25 08:02:02;;;;;;;23.70;17.73;;;;;;;;;;6261930;22;20396;-90
2023/10/25 08:04:48;;;;;;;30.20;19.03;;;;;;;;;;6284536;22;20470;-91
2023/10/25 08:07:26;;;;;;;21.97;15.97;;;;;;;;;;6264716;22;20937;-91
2023/10/25 08:10:03;;;;;;;25.47;17.73;;;;;;;;;;6253614;23;20748;-90
2023/10/25 08:12:57;;;;;;;27.87;17.87;;;;;;;;;;6262034;22;20409;-90
2023/10/25 08:15:30;;;;;;;24.23;18.00;;;;;;;;;;6275538;22;20374;-89
2023/10/25 08:17:59;;;;;;;24.07;17.93;;;;;;;;;;6263219;22;20455;-91
2023/10/25 08:20:32;;;;;;;23.13;17.43;;;;;;;;;;6255486;23;20420;-89
2023/10/25 08:23:05;;;;;;;21.37;16.10;;;;;;;;;;6254749;23;20433;-91
2023/10/25 08:25:55;;;;;;;22.40;16.70;;;11.30;99.90;;;;;;6253098;23;20413;-90
2023/10/25 08:29:15;;;;;;;;;;;;;;;;;;;;;
2023/10/25 08:37:39;;;;;;;24.90;16.50;;;;;;;;;;6183818;23;20400;-90
2023/10/25 08:40:17;;;;;;;25.90;17.73;;;11.30;99.90;;;;;;6275499;22;20382;-91
2023/10/25 08:43:09;;;;;;;24.53;16.57;;;;;;;;;;6272427;22;20510;-93
2023/10/25 08:45:53;;;;;;;20.40;16.30;;;;;;;;;;6273584;23;20532;-91
2023/10/25 08:49:09;;;;;;;;;;;;;;;;;;;;;
2023/10/25 08:52:19;;;;;;;26.80;17.30;;;11.60;99.90;;;;;;6180944;23;20418;-90
2023/10/25 08:55:12;;;;;;;20.67;14.83;;;11.50;99.90;;;;;;6223670;23;20400;-92
2023/10/25 08:58:18;;;;;;;22.83;16.47;;;11.70;99.90;;;;;;6281550;22;20454;-92
2023/10/25 09:07:13;;;;;;;19.27;15.63;;;11.70;99.90;;;;;;6260326;22;20504;-92
2023/10/25 09:10:27;;;;;;;18.90;15.00;;;11.80;99.90;;;;;;6211738;22;20439;-92
2023/10/25 09:13:22;;;;;;;19.33;15.27;;;11.90;99.90;;;;;;6276016;22;20416;-92
2023/10/25 09:16:18;;;;;;;22.57;16.53;;;11.90;99.90;;;;;;6291469;22;20431;-92
2023/10/25 09:21:55;;;;;;;21.80;15.40;;;12.00;99.90;;;;;;6281445;22;20451;-93
2023/10/25 09:34:31;;;;;;;21.50;15.20;;;;;;;;;;6192948;23;20407;-93
2023/10/25 09:37:49;;;;;;;22.63;16.30;;;11.90;99.90;;;;;;6289532;22;20507;-92
2023/10/25 09:44:02;;;;;;;17.07;14.77;;;12.00;99.90;;;;;;6176738;23;20527;-92
2023/10/25 09:46:44;;;;;;;17.67;13.10;;;;;;;;;;6093603;23;20431;-92
2023/10/25 09:49:45;;;;;;;14.47;12.23;;;12.30;99.90;;;;;;6237075;22;20409;-92
2023/10/25 09:55:54;;;;;;;15.20;13.53;;;12.40;99.90;;;;;;6275708;22;20417;-92
2023/10/25 09:58:24;;;;;;;14.53;11.20;;;;;;;;;;6295715;22;20443;-92
2023/10/25 10:07:51;;;;;;;17.13;13.20;;;12.40;99.90;;;;;;6268701;22;20413;-93
2023/10/25 10:17:47;;;;;;;17.03;14.20;;;12.70;99.90;;;;;;6292335;22;20416;-93
2023/10/25 10:23:51;;;;;;;;;;;;;;;;;;;;;
2023/10/25 10:26:54;;;;;;;13.17;10.77;;;12.80;1.00;;;;;;6285164;22;20416;-92
2023/10/25 10:29:57;;;;;;;12.53;10.87;;;12.90;39.80;;;;;;6287509;22;20381;-93
2023/10/25 10:32:42;;;;;;;12.50;11.20;;;12.80;1.00;;;;;;6286836;22;20404;-92
2023/10/25 10:35:50;;;;;;;14.07;10.47;;;12.70;1.00;;;;;;6287390;22;20407;-92
2023/10/25 10:44:25;;;;;;;10.00;9.00;;;;;;;;;;6268228;22;20491;-91
2023/10/25 10:50:18;;;;;;;10.40;9.30;;;12.70;1.00;;;;;;6297164;22;20850;-92
2023/10/25 11:58:04;;;;;;;12.10;10.73;;;12.80;1.00;;;;;;6280630;22;20459;-93
2023/10/25 12:00:32;;;;;;;14.70;11.00;;;;;;;;;;6293799;22;20434;-93
2023/10/25 12:03:00;;;;;;;15.57;12.57;;;;;;;;;;6266858;22;20389;-93
2023/10/25 12:05:27;;;;;;;12.63;11.43;;;;;;;;;;6293249;22;20396;-93
2023/10/25 12:07:54;;;;;;;13.80;12.30;;;12.70;1.00;;;;;;6295856;22;20435;-94
2023/10/25 19:56:11;;;;;;;16.30;14.60;;;10.30;99.90;;;;;;6273420;22;20446;-93
2023/10/25 20:32:19;;;;;;;21.17;15.90;;;10.30;99.90;;;;;;6290466;22;20480;-92
2023/10/25 20:39:02;;;;;;;26.80;18.40;;;10.30;99.90;;;;;;6288900;22;20400;-94
2023/10/25 21:20:45;;;;;;;18.70;15.30;;;10.30;99.90;;;;;;6149788;23;20416;-93
2023/10/25 21:27:40;;;;;;;15.43;12.20;;;10.30;99.90;;;;;;6112526;23;20378;-92
2023/10/25 21:33:46;;;;;;;16.13;13.90;;;;;;;;;;6271799;22;20406;-93
2023/10/25 21:39:22;;;;;;;16.53;13.03;;;;;;;;;;6268277;22;20924;-92
2023/10/25 22:01:26;;;;;;;15.80;13.13;;;;;;;;;;6293360;22;20438;-93
2023/10/25 22:04:14;;;;;;;15.20;13.13;;;;;;;;;;6288832;22;20432;-91
2023/10/25 22:07:08;;;;;;;21.53;14.43;;;10.20;99.90;;;;;;6298497;22;20416;-91
2023/10/25 22:18:44;;;;;;;18.00;14.90;;;10.20;99.90;;;;;;6195151;23;20422;-91
2023/10/25 22:21:37;;;;;;;20.10;13.40;;;;;;;;;;6165307;23;20419;-92
2023/10/25 22:27:48;;;;;;;17.33;12.93;;;10.20;99.90;;;;;;6124497;23;20420;-92
2023/10/25 22:30:27;;;;;;;16.33;12.60;;;;;;;;;;6160102;23;20432;-92
2023/10/25 22:36:38;;;;;;;22.60;13.60;;;10.20;99.90;;;;;;6198627;23;20401;-92
2023/10/25 22:43:29;;;;;;;;;;;;;;;;;;;;;
2023/10/25 22:52:57;;;;;;;14.17;11.80;;;10.20;99.90;;;;;;6116622;23;20410;-93
2023/10/25 22:55:37;;;;;;;15.27;11.60;;;;;;;;;;6132204;23;20391;-91
2023/10/25 23:01:49;;;;;;;;;;;;;;;;;;;;;
2023/10/25 23:29:58;;;;;;;15.10;13.60;;;;;;;;;;6157886;23;20460;-91
